createdAt,value
2019-02-06T00:00:13.049Z,6.08
2019-02-06T00:00:41.404Z,6.12
2019-02-06T00:01:07.500Z,6.07
2019-02-06T00:01:33.607Z,6.09
2019-02-06T00:01:59.846Z,6.09
2019-02-06T00:02:26.174Z,6.08
2019-02-06T00:02:52.302Z,6.04
2019-02-06T00:03:18.640Z,6.05
2019-02-06T00:03:44.741Z,6.05
2019-02-06T00:04:11.116Z,5.99
2019-02-06T00:04:37.236Z,5.89
2019-02-06T00:05:13.518Z,5.91
2019-02-06T00:05:31.889Z,5.94
2019-02-06T00:05:57.959Z,5.93
2019-02-06T00:06:24.056Z,6.04
2019-02-06T00:06:50.458Z,5.89
2019-02-06T00:07:16.580Z,5.89
2019-02-06T00:07:42.961Z,5.83
2019-02-06T00:08:09.056Z,5.93
2019-02-06T00:08:35.228Z,5.84
2019-02-06T00:09:01.810Z,5.82
2019-02-06T00:09:27.993Z,5.76
2019-02-06T00:09:54.098Z,5.75
2019-02-06T00:10:20.362Z,5.8
2019-02-06T00:10:46.469Z,5.79
2019-02-06T00:11:12.808Z,5.72
2019-02-06T00:11:39.902Z,5.82
2019-02-06T00:12:06.010Z,5.76
2019-02-06T00:12:32.464Z,5.66
2019-02-06T00:12:58.567Z,5.66
2019-02-06T00:13:24.727Z,5.66
2019-02-06T00:13:51.243Z,5.68
2019-02-06T00:14:17.339Z,5.65
2019-02-06T00:14:43.582Z,5.71
2019-02-06T00:15:09.780Z,5.66
2019-02-06T00:15:35.868Z,5.69
2019-02-06T00:16:02.362Z,5.65
2019-02-06T00:16:28.463Z,5.69
2019-02-06T00:16:54.922Z,5.66
2019-02-06T00:17:21.077Z,5.66
2019-02-06T00:17:47.332Z,5.65
2019-02-06T00:18:14.102Z,5.61
2019-02-06T00:18:40.224Z,5.64
2019-02-06T00:19:06.362Z,5.68
2019-02-06T00:19:32.748Z,5.65
2019-02-06T00:19:58.884Z,5.65
2019-02-06T00:20:25.131Z,5.71
2019-02-06T00:20:51.232Z,5.65
2019-02-06T00:21:20.239Z,5.69
2019-02-06T00:21:44.562Z,5.69
2019-02-06T00:22:10.662Z,5.66
2019-02-06T00:22:36.768Z,5.68
2019-02-06T00:23:03.205Z,5.68
2019-02-06T00:23:29.338Z,5.65
2019-02-06T00:23:55.704Z,5.69
2019-02-06T00:24:21.815Z,5.66
2019-02-06T00:24:47.920Z,5.73
2019-02-06T00:25:14.237Z,5.65
2019-02-06T00:25:40.347Z,5.65
2019-02-06T00:26:06.808Z,5.65
2019-02-06T00:26:32.914Z,5.66
2019-02-06T00:26:59.019Z,5.61
2019-02-06T00:27:25.575Z,5.62
2019-02-06T00:27:51.684Z,5.69
2019-02-06T00:28:17.886Z,5.65
2019-02-06T00:28:44.587Z,5.68
2019-02-06T00:29:10.714Z,5.62
2019-02-06T00:29:36.948Z,5.65
2019-02-06T00:30:03.048Z,5.65
2019-02-06T00:30:29.158Z,5.66
2019-02-06T00:30:55.501Z,5.61
2019-02-06T00:31:21.627Z,5.64
2019-02-06T00:31:47.729Z,5.66
2019-02-06T00:32:14.044Z,5.61
2019-02-06T00:32:40.155Z,5.62
2019-02-06T00:33:06.678Z,5.69
2019-02-06T00:33:32.786Z,5.59
2019-02-06T00:33:58.885Z,5.61
2019-02-06T00:34:25.275Z,5.66
2019-02-06T00:34:51.378Z,5.65
2019-02-06T00:35:25.446Z,5.69
2019-02-06T00:35:45.824Z,5.66
2019-02-06T00:36:11.930Z,5.69
2019-02-06T00:36:38.331Z,5.65
2019-02-06T00:37:04.437Z,5.68
2019-02-06T00:37:30.544Z,5.68
2019-02-06T00:37:56.946Z,5.69
2019-02-06T00:38:23.101Z,5.62
2019-02-06T00:38:49.479Z,5.65
2019-02-06T00:39:15.632Z,5.69
2019-02-06T00:39:41.820Z,5.71
2019-02-06T00:40:07.970Z,5.72
2019-02-06T00:40:34.075Z,5.73
2019-02-06T00:41:00.544Z,5.71
2019-02-06T00:41:26.798Z,5.66
2019-02-06T00:41:52.895Z,5.66
2019-02-06T00:42:19.264Z,5.65
2019-02-06T00:42:45.427Z,5.66
2019-02-06T00:43:11.536Z,5.59
2019-02-06T00:43:37.874Z,5.66
2019-02-06T00:44:03.975Z,5.64
2019-02-06T00:44:30.349Z,5.73
2019-02-06T00:44:56.511Z,5.62
2019-02-06T00:45:22.612Z,5.65
2019-02-06T00:45:49.071Z,5.71
2019-02-06T00:46:15.180Z,5.56
2019-02-06T00:46:41.279Z,5.56
2019-02-06T00:47:07.719Z,5.54
2019-02-06T00:47:33.823Z,5.54
2019-02-06T00:48:00.349Z,5.59
2019-02-06T00:48:26.446Z,5.54
2019-02-06T00:48:52.555Z,5.56
2019-02-06T00:49:19.119Z,5.54
2019-02-06T00:49:45.256Z,5.57
2019-02-06T00:50:11.575Z,5.54
2019-02-06T00:50:37.953Z,5.51
2019-02-06T00:51:04.084Z,5.51
2019-02-06T00:51:30.452Z,5.54
2019-02-06T00:51:56.564Z,5.57
2019-02-06T00:52:22.725Z,5.54
2019-02-06T00:52:49.154Z,5.54
2019-02-06T00:53:15.288Z,5.51
2019-02-06T00:53:41.684Z,5.54
2019-02-06T00:54:07.793Z,5.56
2019-02-06T00:54:33.884Z,5.59
2019-02-06T00:55:00.310Z,5.5
2019-02-06T00:55:26.391Z,5.5
2019-02-06T00:55:52.482Z,5.39
2019-02-06T00:56:18.862Z,5.43
2019-02-06T00:56:44.971Z,5.39
2019-02-06T00:57:11.525Z,5.41
2019-02-06T00:57:37.650Z,5.41
2019-02-06T00:58:03.773Z,5.44
2019-02-06T00:58:30.188Z,5.43
2019-02-06T00:58:56.355Z,5.35
2019-02-06T00:59:22.456Z,5.41
2019-02-06T00:59:48.587Z,5.38
2019-02-06T01:00:14.691Z,5.44
2019-02-06T01:00:41.160Z,5.38
2019-02-06T01:01:07.319Z,5.43
2019-02-06T01:01:33.459Z,5.43
2019-02-06T01:01:59.781Z,5.39
2019-02-06T01:02:25.884Z,5.41
2019-02-06T01:02:52.215Z,5.41
2019-02-06T01:03:18.318Z,5.46
2019-02-06T01:03:44.445Z,5.39
2019-02-06T01:04:10.995Z,5.36
2019-02-06T01:04:37.102Z,5.38
2019-02-06T01:05:03.203Z,5.53
2019-02-06T01:05:37.760Z,5.41
2019-02-06T01:05:56.895Z,5.46
2019-02-06T01:06:23.498Z,5.41
2019-02-06T01:06:49.624Z,5.48
2019-02-06T01:07:15.732Z,5.47
2019-02-06T01:07:42.249Z,5.38
2019-02-06T01:08:08.360Z,5.46
2019-02-06T01:08:34.452Z,5.36
2019-02-06T01:09:00.858Z,5.51
2019-02-06T01:09:26.990Z,5.48
2019-02-06T01:09:53.269Z,5.46
2019-02-06T01:10:19.382Z,5.38
2019-02-06T01:10:45.489Z,5.33
2019-02-06T01:11:11.883Z,5.41
2019-02-06T01:11:37.982Z,5.46
2019-02-06T01:12:04.313Z,5.39
2019-02-06T01:12:30.557Z,5.46
2019-02-06T01:12:56.703Z,5.36
2019-02-06T01:13:23.069Z,5.39
2019-02-06T01:13:49.168Z,5.38
2019-02-06T01:14:15.285Z,5.38
2019-02-06T01:14:41.658Z,5.33
2019-02-06T01:15:07.760Z,5.39
2019-02-06T01:15:34.170Z,5.32
2019-02-06T01:16:00.269Z,5.35
2019-02-06T01:16:26.384Z,5.35
2019-02-06T01:16:52.812Z,5.43
2019-02-06T01:17:18.912Z,5.43
2019-02-06T01:17:46.006Z,5.39
2019-02-06T01:18:12.439Z,5.44
2019-02-06T01:18:38.567Z,5.39
2019-02-06T01:19:04.991Z,5.36
2019-02-06T01:19:31.126Z,5.39
2019-02-06T01:19:57.252Z,5.39
2019-02-06T01:20:23.796Z,5.32
2019-02-06T01:20:49.903Z,5.46
2019-02-06T01:21:16.030Z,5.46
2019-02-06T01:21:42.221Z,5.43
2019-02-06T01:22:08.360Z,5.51
2019-02-06T01:22:34.680Z,5.51
2019-02-06T01:23:00.819Z,5.53
2019-02-06T01:23:26.977Z,5.54
2019-02-06T01:23:53.389Z,5.53
2019-02-06T01:24:19.495Z,5.56
2019-02-06T01:24:45.829Z,5.56
2019-02-06T01:25:11.942Z,5.51
2019-02-06T01:25:38.084Z,5.53
2019-02-06T01:26:04.357Z,5.56
2019-02-06T01:26:30.460Z,5.54
2019-02-06T01:26:56.563Z,5.57
2019-02-06T01:27:22.854Z,5.51
2019-02-06T01:27:49.019Z,5.54
2019-02-06T01:28:15.442Z,5.56
2019-02-06T01:28:41.540Z,5.57
2019-02-06T01:29:07.643Z,5.51
2019-02-06T01:29:33.951Z,5.54
2019-02-06T01:30:00.227Z,5.51
2019-02-06T01:30:26.542Z,5.46
2019-02-06T01:30:53.166Z,5.38
2019-02-06T01:31:19.276Z,5.54
2019-02-06T01:31:45.779Z,5.41
2019-02-06T01:32:11.935Z,5.38
2019-02-06T01:32:38.029Z,5.38
2019-02-06T01:33:04.456Z,5.39
2019-02-06T01:33:30.789Z,5.51
2019-02-06T01:33:56.902Z,5.38
2019-02-06T01:34:23.310Z,5.3
2019-02-06T01:34:49.419Z,5.36
2019-02-06T01:35:15.877Z,5.36
2019-02-06T01:35:49.395Z,5.39
2019-02-06T01:36:10.058Z,5.44
2019-02-06T01:36:36.405Z,5.41
2019-02-06T01:37:02.506Z,5.38
2019-02-06T01:37:28.968Z,5.39
2019-02-06T01:37:55.072Z,5.36
2019-02-06T01:38:21.182Z,5.36
2019-02-06T01:38:47.604Z,5.38
2019-02-06T01:39:13.702Z,5.43
2019-02-06T01:39:39.810Z,5.32
2019-02-06T01:40:06.288Z,5.36
2019-02-06T01:40:32.469Z,5.33
2019-02-06T01:40:58.903Z,5.35
2019-02-06T01:41:25.012Z,5.43
2019-02-06T01:41:51.119Z,5.32
2019-02-06T01:42:17.509Z,5.33
2019-02-06T01:42:43.614Z,5.43
2019-02-06T01:43:09.714Z,5.39
2019-02-06T01:43:36.056Z,5.36
2019-02-06T01:44:02.162Z,5.36
2019-02-06T01:44:28.531Z,5.41
2019-02-06T01:44:54.630Z,5.39
2019-02-06T01:45:20.733Z,5.44
2019-02-06T01:45:47.345Z,5.38
2019-02-06T01:46:13.481Z,5.35
2019-02-06T01:46:39.928Z,5.3
2019-02-06T01:47:06.300Z,5.32
2019-02-06T01:47:32.401Z,5.32
2019-02-06T01:47:58.764Z,5.21
2019-02-06T01:48:24.899Z,5.28
2019-02-06T01:48:51.005Z,5.26
2019-02-06T01:49:17.423Z,5.26
2019-02-06T01:49:44.788Z,5.21
2019-02-06T01:50:09.888Z,5.18
2019-02-06T01:50:35.990Z,5.17
2019-02-06T01:51:02.102Z,5.2
2019-02-06T01:51:28.658Z,5.15
2019-02-06T01:51:54.781Z,5.12
2019-02-06T01:52:20.886Z,5.23
2019-02-06T01:52:47.339Z,5.18
2019-02-06T01:53:13.457Z,5.14
2019-02-06T01:53:40.061Z,5.12
2019-02-06T01:54:06.166Z,5.15
2019-02-06T01:54:32.320Z,5.11
2019-02-06T01:54:58.630Z,5.11
2019-02-06T01:55:24.817Z,5.14
2019-02-06T01:55:50.944Z,5.11
2019-02-06T01:56:17.328Z,5.1
2019-02-06T01:56:43.438Z,5.1
2019-02-06T01:57:09.823Z,5.11
2019-02-06T01:57:35.954Z,5.14
2019-02-06T01:58:02.063Z,5.17
2019-02-06T01:58:28.445Z,5.11
2019-02-06T01:58:54.548Z,5.15
2019-02-06T01:59:20.937Z,5.12
2019-02-06T01:59:47.181Z,5.05
2019-02-06T02:00:13.286Z,5.12
2019-02-06T02:00:39.768Z,5.18
2019-02-06T02:01:05.870Z,5.18
2019-02-06T02:01:31.974Z,5.14
2019-02-06T02:01:58.280Z,5.12
2019-02-06T02:02:24.445Z,5.1
2019-02-06T02:02:50.807Z,5.17
2019-02-06T02:03:16.913Z,5.05
2019-02-06T02:03:43.018Z,5.05
2019-02-06T02:04:09.267Z,5.18
2019-02-06T02:04:35.371Z,5.18
2019-02-06T02:05:01.480Z,5.17
2019-02-06T02:05:27.839Z,5.05
2019-02-06T02:06:01.619Z,5.05
2019-02-06T02:06:22.243Z,5.05
2019-02-06T02:06:48.341Z,5.14
2019-02-06T02:07:14.449Z,5.15
2019-02-06T02:07:40.906Z,5.15
2019-02-06T02:08:07.046Z,5.14
2019-02-06T02:08:33.142Z,5.15
2019-02-06T02:08:59.473Z,5.11
2019-02-06T02:09:25.572Z,5.1
2019-02-06T02:09:51.939Z,5.21
2019-02-06T02:10:18.071Z,5.14
2019-02-06T02:10:44.206Z,5.14
2019-02-06T02:11:10.536Z,5.07
2019-02-06T02:11:36.642Z,5.07
2019-02-06T02:12:03.038Z,5.12
2019-02-06T02:12:29.171Z,5.02
2019-02-06T02:12:55.273Z,5.15
2019-02-06T02:13:21.785Z,5.17
2019-02-06T02:13:47.896Z,5.14
2019-02-06T02:14:14.027Z,5.07
2019-02-06T02:14:40.400Z,5.08
2019-02-06T02:15:06.508Z,5.1
2019-02-06T02:15:32.870Z,5.04
2019-02-06T02:15:58.975Z,5.1
2019-02-06T02:16:25.081Z,5.12
2019-02-06T02:16:51.328Z,5.1
2019-02-06T02:17:17.430Z,5.11
2019-02-06T02:17:43.538Z,5.1
2019-02-06T02:18:09.924Z,5.15
2019-02-06T02:18:36.032Z,5.08
2019-02-06T02:19:02.345Z,5.15
2019-02-06T02:19:28.453Z,5.04
2019-02-06T02:19:54.553Z,5.08
2019-02-06T02:20:20.944Z,5.04
2019-02-06T02:20:47.047Z,5.1
2019-02-06T02:21:13.251Z,5.17
2019-02-06T02:21:39.467Z,5.26
2019-02-06T02:22:05.567Z,5.14
2019-02-06T02:22:31.938Z,5.04
2019-02-06T02:22:58.064Z,5.11
2019-02-06T02:23:24.172Z,5.11
2019-02-06T02:23:50.388Z,5.11
2019-02-06T02:24:16.519Z,5.1
2019-02-06T02:24:42.855Z,5.08
2019-02-06T02:25:08.965Z,5.11
2019-02-06T02:25:35.190Z,5.02
2019-02-06T02:26:01.313Z,5.02
2019-02-06T02:26:27.424Z,5.12
2019-02-06T02:26:53.522Z,5.12
2019-02-06T02:27:20.012Z,5.11
2019-02-06T02:27:46.147Z,5.15
2019-02-06T02:28:12.693Z,5.11
2019-02-06T02:28:38.804Z,5.11
2019-02-06T02:29:04.934Z,5.15
2019-02-06T02:29:31.388Z,5.18
2019-02-06T02:29:57.497Z,5.1
2019-02-06T02:30:23.669Z,5.05
2019-02-06T02:30:50.039Z,5.15
2019-02-06T02:31:16.146Z,4.99
2019-02-06T02:31:42.702Z,5.12
2019-02-06T02:32:08.805Z,5.14
2019-02-06T02:32:34.938Z,5.14
2019-02-06T02:33:01.414Z,5.14
2019-02-06T02:33:27.518Z,5.17
2019-02-06T02:33:53.904Z,5.11
2019-02-06T02:34:20.008Z,5.17
2019-02-06T02:34:46.113Z,5.15
2019-02-06T02:35:12.261Z,5.21
2019-02-06T02:35:38.368Z,5.2
2019-02-06T02:36:14.794Z,5.18
2019-02-06T02:36:32.618Z,5.18
2019-02-06T02:36:58.758Z,5.17
2019-02-06T02:37:25.160Z,5.15
2019-02-06T02:37:51.300Z,5.23
2019-02-06T02:38:17.463Z,5.21
2019-02-06T02:38:43.606Z,5.15
2019-02-06T02:39:09.717Z,5.17
2019-02-06T02:39:36.073Z,5.2
2019-02-06T02:40:02.181Z,5.2
2019-02-06T02:40:28.304Z,5.14
2019-02-06T02:40:54.674Z,5.2
2019-02-06T02:41:20.855Z,5.21
2019-02-06T02:41:46.985Z,5.2
2019-02-06T02:42:13.487Z,5.25
2019-02-06T02:42:39.580Z,5.17
2019-02-06T02:43:06.010Z,5.25
2019-02-06T02:43:32.121Z,5.23
2019-02-06T02:43:58.250Z,5.26
2019-02-06T02:44:24.547Z,5.26
2019-02-06T02:44:50.681Z,5.3
2019-02-06T02:45:16.816Z,5.23
2019-02-06T02:45:42.941Z,5.26
2019-02-06T02:46:09.075Z,5.26
2019-02-06T02:46:35.201Z,5.25
2019-02-06T02:47:01.305Z,5.23
2019-02-06T02:47:27.412Z,5.26
2019-02-06T02:47:53.725Z,5.26
2019-02-06T02:48:19.825Z,5.28
2019-02-06T02:48:45.935Z,5.29
2019-02-06T02:49:12.250Z,5.2
2019-02-06T02:49:38.354Z,5.18
2019-02-06T02:50:04.485Z,5.18
2019-02-06T02:50:30.591Z,5.26
2019-02-06T02:50:56.711Z,5.15
2019-02-06T02:51:23.307Z,5.23
2019-02-06T02:51:49.748Z,5.29
2019-02-06T02:52:16.139Z,5.23
2019-02-06T02:52:42.243Z,5.18
2019-02-06T02:53:08.369Z,5.25
2019-02-06T02:53:34.908Z,5.2
2019-02-06T02:54:01.034Z,5.18
2019-02-06T02:54:27.144Z,5.26
2019-02-06T02:54:53.359Z,5.25
2019-02-06T02:55:19.492Z,5.26
2019-02-06T02:55:45.658Z,5.28
2019-02-06T02:56:11.791Z,5.29
2019-02-06T02:56:37.925Z,5.28
2019-02-06T02:57:04.265Z,5.32
2019-02-06T02:57:30.370Z,5.26
2019-02-06T02:57:56.466Z,5.32
2019-02-06T02:58:22.809Z,5.28
2019-02-06T02:58:48.908Z,5.2
2019-02-06T02:59:15.336Z,5.3
2019-02-06T02:59:41.438Z,5.28
2019-02-06T03:00:07.606Z,5.28
2019-02-06T03:00:34.352Z,5.29
2019-02-06T03:01:00.480Z,5.3
2019-02-06T03:01:26.775Z,5.29
2019-02-06T03:01:52.973Z,5.3
2019-02-06T03:02:19.104Z,5.26
2019-02-06T03:02:45.660Z,5.28
2019-02-06T03:03:11.810Z,5.3
2019-02-06T03:03:37.970Z,5.32
2019-02-06T03:04:04.278Z,5.23
2019-02-06T03:04:30.378Z,5.3
2019-02-06T03:04:56.741Z,5.3
2019-02-06T03:05:22.872Z,5.33
2019-02-06T03:05:49.000Z,5.26
2019-02-06T03:06:26.967Z,5.33
2019-02-06T03:06:44.371Z,5.28
2019-02-06T03:07:10.825Z,5.3
2019-02-06T03:07:37.098Z,5.36
2019-02-06T03:08:03.232Z,5.33
2019-02-06T03:08:29.515Z,5.33
2019-02-06T03:08:55.651Z,5.32
2019-02-06T03:09:21.757Z,5.32
2019-02-06T03:09:48.159Z,5.33
2019-02-06T03:10:14.291Z,5.33
2019-02-06T03:10:40.655Z,5.33
2019-02-06T03:11:06.815Z,5.3
2019-02-06T03:11:33.024Z,5.33
2019-02-06T03:11:59.344Z,5.33
2019-02-06T03:12:25.473Z,5.32
2019-02-06T03:12:51.573Z,5.35
2019-02-06T03:13:17.954Z,5.35
2019-02-06T03:13:44.065Z,5.36
2019-02-06T03:14:10.634Z,5.33
2019-02-06T03:14:36.766Z,5.32
2019-02-06T03:15:02.894Z,5.38
2019-02-06T03:15:29.236Z,5.3
2019-02-06T03:15:55.336Z,5.35
2019-02-06T03:16:21.443Z,5.33
2019-02-06T03:16:47.753Z,5.36
2019-02-06T03:17:13.976Z,5.33
2019-02-06T03:17:40.418Z,5.33
2019-02-06T03:18:06.540Z,5.35
2019-02-06T03:18:32.638Z,5.36
2019-02-06T03:18:59.002Z,5.35
2019-02-06T03:19:25.133Z,5.33
2019-02-06T03:19:51.493Z,5.36
2019-02-06T03:20:17.624Z,5.3
2019-02-06T03:20:43.822Z,5.32
2019-02-06T03:21:10.364Z,5.28
2019-02-06T03:21:36.465Z,5.3
2019-02-06T03:22:02.635Z,5.33
2019-02-06T03:22:28.830Z,5.29
2019-02-06T03:22:54.947Z,5.36
2019-02-06T03:23:21.321Z,5.29
2019-02-06T03:23:47.462Z,5.33
2019-02-06T03:24:13.573Z,5.3
2019-02-06T03:24:39.893Z,5.26
2019-02-06T03:25:06.069Z,5.3
2019-02-06T03:25:32.179Z,5.29
2019-02-06T03:25:58.519Z,5.26
2019-02-06T03:26:24.626Z,5.32
2019-02-06T03:26:51.110Z,5.35
2019-02-06T03:27:17.201Z,5.33
2019-02-06T03:27:43.329Z,5.3
2019-02-06T03:28:10.000Z,5.36
2019-02-06T03:28:36.102Z,5.32
2019-02-06T03:29:02.326Z,5.36
2019-02-06T03:29:28.623Z,5.33
2019-02-06T03:29:54.786Z,5.43
2019-02-06T03:30:21.191Z,5.33
2019-02-06T03:30:47.314Z,5.33
2019-02-06T03:31:13.447Z,5.36
2019-02-06T03:31:39.831Z,5.3
2019-02-06T03:32:05.970Z,5.32
2019-02-06T03:32:32.292Z,5.35
2019-02-06T03:32:58.501Z,5.35
2019-02-06T03:33:24.652Z,5.3
2019-02-06T03:33:51.051Z,5.28
2019-02-06T03:34:18.171Z,5.36
2019-02-06T03:34:44.296Z,5.26
2019-02-06T03:35:10.790Z,5.3
2019-02-06T03:35:36.892Z,5.3
2019-02-06T03:36:03.193Z,5.3
2019-02-06T03:36:39.768Z,5.35
2019-02-06T03:36:56.437Z,5.32
2019-02-06T03:37:22.785Z,5.33
2019-02-06T03:37:48.883Z,5.3
2019-02-06T03:38:15.261Z,5.36
2019-02-06T03:38:41.522Z,5.28
2019-02-06T03:39:07.651Z,5.32
2019-02-06T03:39:34.174Z,5.29
2019-02-06T03:40:00.462Z,5.25
2019-02-06T03:40:26.558Z,5.36
2019-02-06T03:40:52.684Z,5.35
2019-02-06T03:41:18.791Z,5.35
2019-02-06T03:41:45.127Z,5.33
2019-02-06T03:42:11.237Z,5.32
2019-02-06T03:42:37.334Z,5.3
2019-02-06T03:43:03.736Z,5.33
2019-02-06T03:43:29.862Z,5.33
2019-02-06T03:43:55.968Z,5.33
2019-02-06T03:44:22.490Z,5.41
2019-02-06T03:44:48.589Z,5.33
2019-02-06T03:45:15.206Z,5.33
2019-02-06T03:45:41.377Z,5.3
2019-02-06T03:46:07.511Z,5.3
2019-02-06T03:46:33.813Z,5.3
2019-02-06T03:46:59.948Z,5.29
2019-02-06T03:47:26.052Z,5.3
2019-02-06T03:47:52.484Z,5.29
2019-02-06T03:48:18.588Z,5.38
2019-02-06T03:48:44.974Z,5.35
2019-02-06T03:49:11.082Z,5.36
2019-02-06T03:49:37.181Z,5.39
2019-02-06T03:50:04.065Z,5.36
2019-02-06T03:50:30.225Z,5.39
2019-02-06T03:50:56.610Z,5.39
2019-02-06T03:51:22.892Z,5.39
2019-02-06T03:51:49.003Z,5.33
2019-02-06T03:52:15.734Z,5.39
2019-02-06T03:52:41.914Z,5.32
2019-02-06T03:53:08.015Z,5.29
2019-02-06T03:53:34.513Z,5.39
2019-02-06T03:54:00.649Z,5.33
2019-02-06T03:54:26.995Z,5.36
2019-02-06T03:54:53.101Z,5.36
2019-02-06T03:55:19.234Z,5.35
2019-02-06T03:55:45.600Z,5.44
2019-02-06T03:56:11.733Z,5.32
2019-02-06T03:56:37.835Z,5.33
2019-02-06T03:57:04.212Z,5.26
2019-02-06T03:57:30.313Z,5.3
2019-02-06T03:57:56.671Z,5.3
2019-02-06T03:58:22.809Z,5.32
2019-02-06T03:58:48.935Z,5.3
2019-02-06T03:59:15.483Z,5.32
2019-02-06T03:59:41.601Z,5.32
2019-02-06T04:00:07.882Z,5.3
2019-02-06T04:00:34.141Z,5.33
2019-02-06T04:01:00.249Z,5.3
2019-02-06T04:01:27.388Z,5.33
2019-02-06T04:01:53.537Z,5.26
2019-02-06T04:02:19.726Z,5.28
2019-02-06T04:02:46.076Z,5.3
2019-02-06T04:03:12.237Z,5.25
2019-02-06T04:03:38.591Z,5.25
2019-02-06T04:04:04.689Z,5.2
2019-02-06T04:04:30.823Z,5.35
2019-02-06T04:04:57.146Z,5.3
2019-02-06T04:05:23.282Z,5.35
2019-02-06T04:05:49.387Z,5.29
2019-02-06T04:06:15.895Z,5.32
2019-02-06T04:06:53.093Z,5.35
2019-02-06T04:07:10.141Z,5.28
2019-02-06T04:07:36.255Z,5.32
2019-02-06T04:08:02.354Z,5.29
2019-02-06T04:08:29.011Z,5.32
2019-02-06T04:08:54.961Z,5.3
2019-02-06T04:09:21.085Z,5.28
2019-02-06T04:09:47.373Z,5.33
2019-02-06T04:10:13.505Z,5.35
2019-02-06T04:10:39.871Z,5.33
2019-02-06T04:11:05.977Z,5.32
2019-02-06T04:11:32.110Z,5.3
2019-02-06T04:11:58.479Z,5.35
2019-02-06T04:12:24.574Z,5.3
2019-02-06T04:12:50.975Z,5.32
2019-02-06T04:13:17.075Z,5.29
2019-02-06T04:13:43.207Z,5.35
2019-02-06T04:14:09.635Z,5.29
2019-02-06T04:14:35.772Z,5.3
2019-02-06T04:15:01.901Z,5.28
2019-02-06T04:15:28.107Z,5.29
2019-02-06T04:15:54.212Z,5.33
2019-02-06T04:16:20.700Z,5.33
2019-02-06T04:16:46.805Z,5.35
2019-02-06T04:17:12.944Z,5.3
2019-02-06T04:17:39.475Z,5.21
2019-02-06T04:18:05.639Z,5.23
2019-02-06T04:18:31.743Z,5.29
2019-02-06T04:18:57.893Z,5.23
2019-02-06T04:19:23.995Z,5.28
2019-02-06T04:19:50.346Z,5.3
2019-02-06T04:20:16.522Z,5.3
2019-02-06T04:20:42.626Z,5.29
2019-02-06T04:21:09.038Z,5.32
2019-02-06T04:21:35.145Z,5.29
2019-02-06T04:22:01.292Z,5.3
2019-02-06T04:22:27.400Z,5.32
2019-02-06T04:22:53.497Z,5.25
2019-02-06T04:23:19.955Z,5.3
2019-02-06T04:23:46.021Z,5.32
2019-02-06T04:24:12.223Z,5.26
2019-02-06T04:24:38.792Z,5.26
2019-02-06T04:25:05.890Z,5.3
2019-02-06T04:25:32.324Z,5.3
2019-02-06T04:25:58.457Z,5.33
2019-02-06T04:26:24.587Z,5.33
2019-02-06T04:26:50.829Z,5.33
2019-02-06T04:27:16.935Z,5.35
2019-02-06T04:27:43.041Z,5.44
2019-02-06T04:28:09.508Z,5.39
2019-02-06T04:28:35.626Z,5.33
2019-02-06T04:29:02.050Z,5.36
2019-02-06T04:29:28.161Z,5.41
2019-02-06T04:29:54.267Z,5.38
2019-02-06T04:30:20.401Z,5.33
2019-02-06T04:30:46.543Z,5.36
2019-02-06T04:31:12.902Z,5.36
2019-02-06T04:31:39.042Z,5.33
2019-02-06T04:32:05.144Z,5.38
2019-02-06T04:32:32.559Z,5.33
2019-02-06T04:32:58.721Z,5.36
2019-02-06T04:33:24.876Z,5.36
2019-02-06T04:33:51.339Z,5.35
2019-02-06T04:34:17.469Z,5.38
2019-02-06T04:34:43.856Z,5.25
2019-02-06T04:35:09.988Z,5.26
2019-02-06T04:35:36.133Z,5.3
2019-02-06T04:36:02.836Z,5.29
2019-02-06T04:36:28.945Z,5.26
2019-02-06T04:37:06.061Z,5.29
2019-02-06T04:37:22.818Z,5.3
2019-02-06T04:37:49.007Z,5.25
2019-02-06T04:38:15.444Z,5.28
2019-02-06T04:38:41.543Z,5.28
2019-02-06T04:39:07.684Z,5.29
2019-02-06T04:39:34.249Z,5.33
2019-02-06T04:40:00.356Z,5.26
2019-02-06T04:40:26.676Z,5.25
2019-02-06T04:40:52.881Z,5.28
2019-02-06T04:41:19.015Z,5.25
2019-02-06T04:41:45.294Z,5.18
2019-02-06T04:42:11.423Z,5.23
2019-02-06T04:42:37.557Z,5.25
2019-02-06T04:43:03.898Z,5.25
2019-02-06T04:43:30.030Z,5.32
2019-02-06T04:43:56.374Z,5.28
2019-02-06T04:44:22.470Z,5.14
2019-02-06T04:44:48.604Z,5.21
2019-02-06T04:45:15.482Z,5.14
2019-02-06T04:45:41.580Z,5.17
2019-02-06T04:46:07.688Z,5.26
2019-02-06T04:46:34.011Z,5.23
2019-02-06T04:47:00.118Z,5.28
2019-02-06T04:47:26.243Z,5.28
2019-02-06T04:47:52.382Z,5.26
2019-02-06T04:48:18.490Z,5.28
2019-02-06T04:48:45.894Z,5.26
2019-02-06T04:49:12.067Z,5.32
2019-02-06T04:49:38.423Z,5.33
2019-02-06T04:50:04.553Z,5.3
2019-02-06T04:50:30.656Z,5.29
2019-02-06T04:50:57.096Z,5.35
2019-02-06T04:51:23.208Z,5.33
2019-02-06T04:51:49.312Z,5.32
2019-02-06T04:52:15.485Z,5.32
2019-02-06T04:52:41.588Z,5.25
2019-02-06T04:53:07.969Z,5.21
2019-02-06T04:53:34.073Z,5.25
2019-02-06T04:54:00.282Z,5.25
2019-02-06T04:54:26.448Z,5.28
2019-02-06T04:54:52.580Z,5.29
2019-02-06T04:55:18.717Z,5.21
2019-02-06T04:55:45.084Z,5.21
2019-02-06T04:56:11.184Z,5.18
2019-02-06T04:56:37.311Z,5.2
2019-02-06T04:57:03.415Z,5.18
2019-02-06T04:57:30.491Z,5.15
2019-02-06T04:57:56.886Z,5.21
2019-02-06T04:58:23.011Z,5.21
2019-02-06T04:58:49.401Z,5.2
2019-02-06T04:59:15.559Z,5.28
2019-02-06T04:59:41.685Z,5.3
2019-02-06T05:00:08.331Z,5.28
2019-02-06T05:00:34.438Z,5.29
2019-02-06T05:01:00.547Z,5.3
2019-02-06T05:01:26.901Z,5.2
2019-02-06T05:01:53.087Z,5.29
2019-02-06T05:02:19.532Z,5.32
2019-02-06T05:02:45.638Z,5.25
2019-02-06T05:03:11.771Z,5.32
2019-02-06T05:03:38.896Z,5.25
2019-02-06T05:04:05.016Z,5.26
2019-02-06T05:04:31.125Z,5.29
2019-02-06T05:04:57.463Z,5.23
2019-02-06T05:05:23.576Z,5.29
2019-02-06T05:05:50.571Z,5.25
2019-02-06T05:06:16.678Z,5.18
2019-02-06T05:06:42.778Z,5.28
2019-02-06T05:07:18.575Z,5.25
2019-02-06T05:07:37.232Z,5.26
2019-02-06T05:08:03.360Z,5.32
2019-02-06T05:08:29.462Z,5.29
2019-02-06T05:08:55.559Z,5.3
2019-02-06T05:09:22.014Z,5.29
2019-02-06T05:09:48.115Z,5.28
2019-02-06T05:10:14.215Z,5.3
2019-02-06T05:10:40.707Z,5.3
2019-02-06T05:11:06.837Z,5.32
2019-02-06T05:11:33.001Z,5.26
2019-02-06T05:11:59.138Z,5.25
2019-02-06T05:12:25.393Z,5.2
2019-02-06T05:12:51.832Z,5.26
2019-02-06T05:13:17.999Z,5.2
2019-02-06T05:13:44.102Z,5.17
2019-02-06T05:14:10.516Z,5.17
2019-02-06T05:14:36.681Z,5.11
2019-02-06T05:15:03.076Z,5.2
2019-02-06T05:15:29.207Z,5.17
2019-02-06T05:15:55.302Z,5.14
2019-02-06T05:16:21.582Z,5.21
2019-02-06T05:16:47.691Z,5.17
2019-02-06T05:17:13.805Z,5.1
2019-02-06T05:17:39.928Z,5.14
2019-02-06T05:18:06.473Z,5.18
2019-02-06T05:18:32.617Z,5.14
2019-02-06T05:18:58.707Z,5.14
2019-02-06T05:19:24.817Z,5.21
2019-02-06T05:19:51.174Z,5.08
2019-02-06T05:20:17.280Z,5.14
2019-02-06T05:20:43.943Z,5.18
2019-02-06T05:21:10.179Z,5.12
2019-02-06T05:21:36.287Z,5.18
2019-02-06T05:22:02.571Z,5.18
2019-02-06T05:22:28.671Z,5.17
2019-02-06T05:22:54.781Z,5.17
2019-02-06T05:23:21.290Z,5.17
2019-02-06T05:23:47.452Z,5.15
2019-02-06T05:24:13.758Z,5.2
2019-02-06T05:24:39.945Z,5.18
2019-02-06T05:25:06.069Z,5.1
2019-02-06T05:25:32.436Z,5.21
2019-02-06T05:25:58.574Z,5.25
2019-02-06T05:26:24.683Z,5.2
2019-02-06T05:26:51.082Z,5.18
2019-02-06T05:27:17.165Z,5.26
2019-02-06T05:27:43.599Z,5.21
2019-02-06T05:28:09.704Z,5.1
2019-02-06T05:28:36.795Z,5.21
2019-02-06T05:29:03.064Z,5.11
2019-02-06T05:29:29.166Z,5.26
2019-02-06T05:29:55.568Z,5.14
2019-02-06T05:30:21.860Z,5.14
2019-02-06T05:30:48.018Z,5.15
2019-02-06T05:31:14.391Z,5.2
2019-02-06T05:31:40.521Z,5.15
2019-02-06T05:32:06.628Z,5.15
2019-02-06T05:32:32.964Z,5.11
2019-02-06T05:33:00.069Z,5.14
2019-02-06T05:33:26.225Z,5.14
2019-02-06T05:33:52.342Z,5.14
2019-02-06T05:34:18.444Z,5.18
2019-02-06T05:34:44.872Z,5.1
2019-02-06T05:35:11.084Z,5.21
2019-02-06T05:35:37.203Z,5.18
2019-02-06T05:36:03.587Z,5.17
2019-02-06T05:36:29.690Z,5.17
2019-02-06T05:36:55.843Z,5.17
2019-02-06T05:37:31.490Z,5.11
2019-02-06T05:37:50.089Z,5.12
2019-02-06T05:38:16.528Z,5.17
2019-02-06T05:38:42.693Z,5.1
2019-02-06T05:39:08.937Z,5.18
2019-02-06T05:39:35.269Z,5.2
2019-02-06T05:40:01.436Z,5.17
2019-02-06T05:40:27.677Z,5.18
2019-02-06T05:40:53.773Z,5.11
2019-02-06T05:41:19.884Z,5.2
2019-02-06T05:41:46.257Z,5.23
2019-02-06T05:42:12.366Z,5.14
2019-02-06T05:42:38.780Z,5.14
2019-02-06T05:43:05.879Z,5.2
2019-02-06T05:43:32.007Z,5.18
2019-02-06T05:43:58.429Z,5.14
2019-02-06T05:44:24.540Z,5.14
2019-02-06T05:44:50.639Z,5.21
2019-02-06T05:45:17.160Z,5.2
2019-02-06T05:45:43.289Z,5.11
2019-02-06T05:46:09.595Z,5.18
2019-02-06T05:46:35.725Z,5.17
2019-02-06T05:47:01.830Z,5.2
2019-02-06T05:47:28.157Z,5.18
2019-02-06T05:47:54.328Z,5.23
2019-02-06T05:48:20.437Z,5.14
2019-02-06T05:48:49.249Z,5.1
2019-02-06T05:49:13.884Z,5.17
2019-02-06T05:49:40.016Z,5.15
2019-02-06T05:50:06.123Z,5.12
2019-02-06T05:50:32.276Z,5.11
2019-02-06T05:50:58.675Z,5.07